CES583 ZSPD-KLAX
Flight info
| Callsign | CES583 |
|---|---|
| Flight time | N/A |
| Altitude | FL310 |
| Route | LAM81D LAMEN A593 SADLI Y590 BEDAR Y591 FUE Y23 KASTE Y81 TASOT Y57 POROT OTR11 LEPKI 41N160E 42N170E 42N180E 42N170W 42N160W 42N150W 41N140W 39N130W DACEM PAINT PIRAT TILLT DIRBY2 |
| Aircraft | B77W/H-SDE1E2E3FGHIJ2J3J4J5M1RWXY/LB1D1 |
Departure
| Time | 2026-05-05 03:09 |
|---|---|
| Airport | Shanghai Pudong International Airport (ZSPD) |
Arrival
| Time | N/A |
|---|---|
| Airport | Los Angeles International Airport (KLAX) |
| Time | Latitude | Longitude | Altitude | Speed | Heading |
|---|---|---|---|---|---|
| 2026-05-05 02:51 | 31.13667 | 121.80188 | 28 ft | 0 kts | 72° |
| 2026-05-05 02:59 | 31.13667 | 121.80185 | 27 ft | 1 kts | 72° |
| 2026-05-05 02:59 | 31.13661 | 121.80165 | 27 ft | 3 kts | 72° |
| 2026-05-05 02:59 | 31.13655 | 121.80142 | 27 ft | 2 kts | 72° |
| 2026-05-05 03:00 | 31.13650 | 121.80125 | 26 ft | 3 kts | 65° |
| 2026-05-05 03:00 | 31.13642 | 121.80108 | 25 ft | 3 kts | 42° |
| 2026-05-05 03:00 | 31.13632 | 121.80099 | 25 ft | 3 kts | 10° |
| 2026-05-05 03:00 | 31.13617 | 121.80099 | 26 ft | 3 kts | 342° |
| 2026-05-05 03:01 | 31.13599 | 121.80107 | 26 ft | 3 kts | 338° |
| 2026-05-05 03:01 | 31.13587 | 121.80112 | 26 ft | 0 kts | 342° |
| 2026-05-05 03:02 | 31.13659 | 121.80085 | 27 ft | 21 kts | 342° |
| 2026-05-05 03:03 | 31.13805 | 121.80029 | 28 ft | 22 kts | 342° |
| 2026-05-05 03:03 | 31.13952 | 121.79973 | 28 ft | 22 kts | 342° |
| 2026-05-05 03:03 | 31.14100 | 121.79917 | 28 ft | 22 kts | 342° |
| 2026-05-05 03:03 | 31.14247 | 121.79861 | 28 ft | 22 kts | 342° |
| 2026-05-05 03:04 | 31.14395 | 121.79806 | 28 ft | 22 kts | 342° |
| 2026-05-05 03:04 | 31.14543 | 121.79752 | 27 ft | 23 kts | 342° |
| 2026-05-05 03:04 | 31.14705 | 121.79691 | 27 ft | 26 kts | 341° |
| 2026-05-05 03:04 | 31.14887 | 121.79619 | 28 ft | 29 kts | 341° |
| 2026-05-05 03:05 | 31.15090 | 121.79538 | 28 ft | 32 kts | 341° |
| 2026-05-05 03:05 | 31.15166 | 121.79510 | 28 ft | 0 kts | 343° |
| 2026-05-05 03:05 | 31.15169 | 121.79509 | 28 ft | 5 kts | 343° |
| 2026-05-05 03:05 | 31.15273 | 121.79473 | 28 ft | 21 kts | 343° |
| 2026-05-05 03:06 | 31.15411 | 121.79426 | 28 ft | 21 kts | 343° |
| 2026-05-05 03:06 | 31.15426 | 121.79421 | 28 ft | 0 kts | 343° |
| 2026-05-05 03:07 | 31.15495 | 121.79396 | 28 ft | 24 kts | 343° |
| 2026-05-05 03:07 | 31.15655 | 121.79330 | 28 ft | 21 kts | 321° |
| 2026-05-05 03:07 | 31.15657 | 121.79170 | 27 ft | 21 kts | 253° |
| 2026-05-05 03:07 | 31.15618 | 121.79006 | 27 ft | 21 kts | 260° |
| 2026-05-05 03:08 | 31.15573 | 121.78848 | 26 ft | 22 kts | 210° |
| 2026-05-05 03:08 | 31.15387 | 121.78871 | 27 ft | 42 kts | 163° |
| 2026-05-05 03:08 | 31.14904 | 121.79060 | 30 ft | 105 kts | 162° |
| 2026-05-05 03:08 | 31.14026 | 121.79389 | 29 ft | 160 kts | 162° |
| 2026-05-05 03:09 | 31.12835 | 121.79833 | 59 ft | 195 kts | 163° |
| 2026-05-05 03:09 | 31.11531 | 121.80306 | 536 ft | 195 kts | 164° |
| 2026-05-05 03:09 | 31.10293 | 121.80729 | 1410 ft | 182 kts | 166° |
| 2026-05-05 03:09 | 31.09022 | 121.81163 | 1747 ft | 201 kts | 165° |
| 2026-05-05 03:10 | 31.07601 | 121.81648 | 2006 ft | 224 kts | 167° |
| 2026-05-05 03:10 | 31.06074 | 121.82143 | 2538 ft | 233 kts | 165° |
| 2026-05-05 03:10 | 31.04503 | 121.82651 | 3160 ft | 237 kts | 166° |
| 2026-05-05 03:10 | 31.02907 | 121.83187 | 3867 ft | 238 kts | 165° |
| 2026-05-05 03:11 | 31.01312 | 121.83726 | 4444 ft | 245 kts | 164° |
| 2026-05-05 03:11 | 30.99633 | 121.84298 | 4836 ft | 254 kts | 163° |
| 2026-05-05 03:11 | 30.97958 | 121.85008 | 5305 ft | 261 kts | 158° |
| 2026-05-05 03:11 | 30.96255 | 121.85828 | 5792 ft | 268 kts | 158° |
| 2026-05-05 03:12 | 30.94523 | 121.86663 | 6327 ft | 273 kts | 158° |
| 2026-05-05 03:12 | 30.92756 | 121.87506 | 6828 ft | 278 kts | 159° |
| 2026-05-05 03:12 | 30.90917 | 121.88223 | 7352 ft | 280 kts | 163° |
| 2026-05-05 03:12 | 30.89047 | 121.88885 | 7928 ft | 282 kts | 163° |
| 2026-05-05 03:13 | 30.87166 | 121.89557 | 8461 ft | 285 kts | 163° |
| 2026-05-05 03:13 | 30.85266 | 121.90247 | 9005 ft | 288 kts | 163° |
| 2026-05-05 03:13 | 30.83485 | 121.90933 | 9485 ft | 289 kts | 156° |
| 2026-05-05 03:13 | 30.81863 | 121.92322 | 9835 ft | 296 kts | 127° |
| 2026-05-05 03:14 | 30.80992 | 121.94476 | 10273 ft | 300 kts | 99° |
| 2026-05-05 03:14 | 30.81045 | 121.96926 | 10435 ft | 314 kts | 74° |
| 2026-05-05 03:14 | 30.81701 | 121.99396 | 10562 ft | 329 kts | 71° |